Terminal Aerodrome Forecast
Issued by NWS

Home | Current Version | Previous Version | Text Only | Print | Product List | Glossary On
Versions: 1 2 3 4 5 6 7 8 9 10 11 12 13 14 15 16 17 18 19 20 21 22 23 24 25
000
FTUS41 KGYX 041549 AAC
TAFPSM
TAF AMD
KPSM 041549Z 0416/0512 13004KT P6SM SCT015 BKN150
      TEMPO 0420/0424 4SM -TSRA BKN025CB OVC040
     FM050300 25005KT 5SM BR SCT060=

USA.gov is the U.S. government's official web portal to all federal, state and local government web resources and services.